sensor_id;sensor_type;location;lat;lon;timestamp;pressure;altitude;pressure_sealevel;temperature;humidity
48810;BME280;40070;47.322;18.784;2023-04-10T00:00:39;1010.55;;;6.59;64.00
48810;BME280;40070;47.322;18.784;2023-04-10T00:02:40;1010.54;;;6.48;63.98
48810;BME280;40070;47.322;18.784;2023-04-10T00:04:41;1010.51;;;6.44;64.12
48810;BME280;40070;47.322;18.784;2023-04-10T00:06:42;1010.51;;;6.47;63.80
48810;BME280;40070;47.322;18.784;2023-04-10T00:08:43;1010.47;;;6.45;63.66
48810;BME280;40070;47.322;18.784;2023-04-10T00:10:44;1010.43;;;6.47;63.41
48810;BME280;40070;47.322;18.784;2023-04-10T00:12:45;1010.46;;;6.26;64.17
48810;BME280;40070;47.322;18.784;2023-04-10T00:14:46;1010.40;;;6.24;64.29
48810;BME280;40070;47.322;18.784;2023-04-10T00:16:47;1010.37;;;6.22;63.97
48810;BME280;40070;47.322;18.784;2023-04-10T00:18:48;1010.36;;;6.32;63.42
48810;BME280;40070;47.322;18.784;2023-04-10T00:20:48;1010.34;;;6.15;63.64
48810;BME280;40070;47.322;18.784;2023-04-10T00:22:49;1010.27;;;6.09;63.86
48810;BME280;40070;47.322;18.784;2023-04-10T00:24:50;1010.28;;;6.13;64.11
48810;BME280;40070;47.322;18.784;2023-04-10T00:26:51;1010.34;;;5.97;65.76
48810;BME280;40070;47.322;18.784;2023-04-10T00:28:52;1010.28;;;6.16;65.62
48810;BME280;40070;47.322;18.784;2023-04-10T00:30:53;1010.28;;;6.16;65.82
48810;BME280;40070;47.322;18.784;2023-04-10T00:32:54;1010.25;;;6.12;65.87
48810;BME280;40070;47.322;18.784;2023-04-10T00:34:55;1010.24;;;6.19;65.71
48810;BME280;40070;47.322;18.784;2023-04-10T00:36:57;1010.29;;;6.26;65.15
48810;BME280;40070;47.322;18.784;2023-04-10T00:38:58;1010.27;;;6.29;64.74
48810;BME280;40070;47.322;18.784;2023-04-10T00:40:59;1010.24;;;6.04;65.09
48810;BME280;40070;47.322;18.784;2023-04-10T00:43:00;1010.30;;;6.06;65.06
48810;BME280;40070;47.322;18.784;2023-04-10T00:45:01;1010.25;;;6.11;64.64
48810;BME280;40070;47.322;18.784;2023-04-10T00:47:02;1010.24;;;6.26;64.06
48810;BME280;40070;47.322;18.784;2023-04-10T00:49:04;1010.24;;;6.08;64.58
48810;BME280;40070;47.322;18.784;2023-04-10T00:51:05;1010.21;;;5.81;66.04
48810;BME280;40070;47.322;18.784;2023-04-10T00:53:06;1010.22;;;5.92;65.53
48810;BME280;40070;47.322;18.784;2023-04-10T00:55:07;1010.21;;;6.04;65.60
48810;BME280;40070;47.322;18.784;2023-04-10T00:57:08;1010.15;;;5.90;66.80
48810;BME280;40070;47.322;18.784;2023-04-10T00:59:09;1010.16;;;6.03;66.71
48810;BME280;40070;47.322;18.784;2023-04-10T01:01:10;1010.19;;;6.18;65.82
48810;BME280;40070;47.322;18.784;2023-04-10T01:03:11;1010.13;;;6.21;65.58
48810;BME280;40070;47.322;18.784;2023-04-10T01:05:12;1010.13;;;6.17;65.16
48810;BME280;40070;47.322;18.784;2023-04-10T01:09:51;1010.11;;;6.24;64.46
48810;BME280;40070;47.322;18.784;2023-04-10T01:11:54;1010.13;;;6.22;64.47
48810;BME280;40070;47.322;18.784;2023-04-10T01:16:25;1010.10;;;6.09;64.92
48810;BME280;40070;47.322;18.784;2023-04-10T01:18:42;1010.11;;;6.19;64.66
48810;BME280;40070;47.322;18.784;2023-04-10T01:20:44;1010.10;;;6.26;64.19
48810;BME280;40070;47.322;18.784;2023-04-10T01:25:09;1010.08;;;6.07;64.58
48810;BME280;40070;47.322;18.784;2023-04-10T01:27:29;1010.05;;;6.06;64.64
48810;BME280;40070;47.322;18.784;2023-04-10T01:29:28;1010.06;;;6.23;64.61
48810;BME280;40070;47.322;18.784;2023-04-10T01:31:36;1010.06;;;6.26;64.84
48810;BME280;40070;47.322;18.784;2023-04-10T01:33:42;1010.05;;;6.16;64.85
48810;BME280;40070;47.322;18.784;2023-04-10T01:35:46;1010.03;;;6.12;65.02
48810;BME280;40070;47.322;18.784;2023-04-10T01:37:47;1010.04;;;6.11;64.88
48810;BME280;40070;47.322;18.784;2023-04-10T01:39:50;1010.04;;;6.17;64.80
48810;BME280;40070;47.322;18.784;2023-04-10T01:41:52;1009.97;;;6.16;64.65
48810;BME280;40070;47.322;18.784;2023-04-10T01:43:55;1009.95;;;6.05;65.30
48810;BME280;40070;47.322;18.784;2023-04-10T01:45:58;1009.96;;;5.75;66.89
48810;BME280;40070;47.322;18.784;2023-04-10T01:48:00;1009.96;;;5.53;68.14
48810;BME280;40070;47.322;18.784;2023-04-10T01:50:01;1009.95;;;5.56;68.37
48810;BME280;40070;47.322;18.784;2023-04-10T01:52:03;1009.98;;;5.79;67.76
48810;BME280;40070;47.322;18.784;2023-04-10T01:54:05;1009.97;;;5.61;67.85
48810;BME280;40070;47.322;18.784;2023-04-10T01:56:07;1009.98;;;5.75;67.18
48810;BME280;40070;47.322;18.784;2023-04-10T01:58:08;1009.98;;;6.04;66.37
48810;BME280;40070;47.322;18.784;2023-04-10T02:00:10;1009.94;;;6.10;65.97
48810;BME280;40070;47.322;18.784;2023-04-10T02:02:11;1009.95;;;6.16;65.24
48810;BME280;40070;47.322;18.784;2023-04-10T02:04:12;1009.96;;;6.10;64.91
48810;BME280;40070;47.322;18.784;2023-04-10T02:06:17;1009.96;;;6.12;64.82
48810;BME280;40070;47.322;18.784;2023-04-10T02:08:34;1009.97;;;6.14;64.25
48810;BME280;40070;47.322;18.784;2023-04-10T02:10:36;1009.99;;;6.03;64.70
48810;BME280;40070;47.322;18.784;2023-04-10T02:12:43;1009.97;;;5.81;65.78
48810;BME280;40070;47.322;18.784;2023-04-10T02:14:45;1010.02;;;5.53;66.94
48810;BME280;40070;47.322;18.784;2023-04-10T02:16:47;1009.99;;;5.77;66.56
48810;BME280;40070;47.322;18.784;2023-04-10T02:18:49;1010.01;;;5.84;66.06
48810;BME280;40070;47.322;18.784;2023-04-10T02:20:51;1010.00;;;5.90;65.47
48810;BME280;40070;47.322;18.784;2023-04-10T02:22:52;1009.98;;;5.86;65.23
48810;BME280;40070;47.322;18.784;2023-04-10T02:24:53;1010.02;;;5.93;64.78
48810;BME280;40070;47.322;18.784;2023-04-10T02:26:54;1009.97;;;5.83;64.97
48810;BME280;40070;47.322;18.784;2023-04-10T02:28:55;1009.96;;;5.80;64.66
48810;BME280;40070;47.322;18.784;2023-04-10T02:30:56;1009.92;;;5.70;64.77
48810;BME280;40070;47.322;18.784;2023-04-10T02:32:57;1009.87;;;5.76;64.65
48810;BME280;40070;47.322;18.784;2023-04-10T02:34:58;1009.86;;;5.87;64.44
48810;BME280;40070;47.322;18.784;2023-04-10T02:36:59;1009.86;;;5.90;64.60
48810;BME280;40070;47.322;18.784;2023-04-10T02:39:00;1009.85;;;5.65;66.25
48810;BME280;40070;47.322;18.784;2023-04-10T02:41:01;1009.86;;;5.46;67.26
48810;BME280;40070;47.322;18.784;2023-04-10T02:43:02;1009.83;;;5.33;68.19
48810;BME280;40070;47.322;18.784;2023-04-10T02:45:03;1009.79;;;5.45;67.74
48810;BME280;40070;47.322;18.784;2023-04-10T02:47:04;1009.74;;;5.53;67.33
48810;BME280;40070;47.322;18.784;2023-04-10T02:49:05;1009.76;;;5.48;67.50
48810;BME280;40070;47.322;18.784;2023-04-10T02:51:06;1009.80;;;5.59;67.20
48810;BME280;40070;47.322;18.784;2023-04-10T02:53:07;1009.81;;;5.69;66.64
48810;BME280;40070;47.322;18.784;2023-04-10T02:55:08;1009.78;;;5.72;66.09
48810;BME280;40070;47.322;18.784;2023-04-10T02:57:09;1009.81;;;5.77;65.90
48810;BME280;40070;47.322;18.784;2023-04-10T02:59:11;1009.78;;;5.78;65.68
48810;BME280;40070;47.322;18.784;2023-04-10T03:01:12;1009.77;;;5.81;65.51
48810;BME280;40070;47.322;18.784;2023-04-10T03:03:13;1009.82;;;5.74;66.18
48810;BME280;40070;47.322;18.784;2023-04-10T03:05:14;1009.85;;;5.66;66.25
48810;BME280;40070;47.322;18.784;2023-04-10T03:07:15;1009.85;;;5.81;66.27
48810;BME280;40070;47.322;18.784;2023-04-10T03:09:15;1009.85;;;5.81;66.27
48810;BME280;40070;47.322;18.784;2023-04-10T03:11:16;1009.80;;;5.77;66.35
48810;BME280;40070;47.322;18.784;2023-04-10T03:13:17;1009.79;;;5.76;66.30
48810;BME280;40070;47.322;18.784;2023-04-10T03:15:18;1009.81;;;5.88;65.71
48810;BME280;40070;47.322;18.784;2023-04-10T03:17:19;1009.77;;;5.86;65.23
48810;BME280;40070;47.322;18.784;2023-04-10T03:19:20;1009.77;;;5.70;66.04
48810;BME280;40070;47.322;18.784;2023-04-10T03:21:21;1009.73;;;5.43;67.71
48810;BME280;40070;47.322;18.784;2023-04-10T03:23:22;1009.71;;;5.67;66.92
48810;BME280;40070;47.322;18.784;2023-04-10T03:25:23;1009.68;;;5.46;67.63
48810;BME280;40070;47.322;18.784;2023-04-10T03:27:24;1009.74;;;5.59;67.84
48810;BME280;40070;47.322;18.784;2023-04-10T03:29:25;1009.78;;;5.74;66.60
48810;BME280;40070;47.322;18.784;2023-04-10T03:31:26;1009.76;;;5.56;67.20
48810;BME280;40070;47.322;18.784;2023-04-10T03:33:27;1009.77;;;5.70;66.48
48810;BME280;40070;47.322;18.784;2023-04-10T03:35:27;1009.75;;;5.74;66.21
48810;BME280;40070;47.322;18.784;2023-04-10T03:37:28;1009.77;;;5.76;66.51
48810;BME280;40070;47.322;18.784;2023-04-10T03:39:29;1009.79;;;5.79;66.86
48810;BME280;40070;47.322;18.784;2023-04-10T03:41:30;1009.74;;;5.87;66.70
48810;BME280;40070;47.322;18.784;2023-04-10T03:43:31;1009.77;;;5.31;68.72
48810;BME280;40070;47.322;18.784;2023-04-10T03:45:32;1009.75;;;5.32;69.07
48810;BME280;40070;47.322;18.784;2023-04-10T03:47:33;1009.80;;;5.51;69.17
48810;BME280;40070;47.322;18.784;2023-04-10T03:49:34;1009.79;;;5.10;70.25
48810;BME280;40070;47.322;18.784;2023-04-10T03:51:35;1009.81;;;5.26;70.25
48810;BME280;40070;47.322;18.784;2023-04-10T03:53:36;1009.83;;;5.15;70.71
48810;BME280;40070;47.322;18.784;2023-04-10T03:55:37;1009.83;;;5.11;70.76
48810;BME280;40070;47.322;18.784;2023-04-10T03:57:38;1009.82;;;5.20;70.63
48810;BME280;40070;47.322;18.784;2023-04-10T03:59:38;1009.88;;;5.05;71.22
48810;BME280;40070;47.322;18.784;2023-04-10T04:01:39;1009.85;;;5.21;71.03
48810;BME280;40070;47.322;18.784;2023-04-10T04:03:40;1009.89;;;4.97;71.90
48810;BME280;40070;47.322;18.784;2023-04-10T04:05:41;1009.86;;;5.43;70.51
48810;BME280;40070;47.322;18.784;2023-04-10T04:07:42;1009.84;;;5.49;69.92
48810;BME280;40070;47.322;18.784;2023-04-10T04:09:43;1009.93;;;5.28;70.45
48810;BME280;40070;47.322;18.784;2023-04-10T04:11:44;1009.94;;;5.46;70.25
48810;BME280;40070;47.322;18.784;2023-04-10T04:13:45;1009.92;;;5.40;70.47
48810;BME280;40070;47.322;18.784;2023-04-10T04:15:46;1009.93;;;5.23;70.69
48810;BME280;40070;47.322;18.784;2023-04-10T04:17:47;1009.95;;;5.59;70.06
48810;BME280;40070;47.322;18.784;2023-04-10T04:19:48;1009.96;;;5.45;69.87
48810;BME280;40070;47.322;18.784;2023-04-10T04:21:49;1009.91;;;5.43;69.94
48810;BME280;40070;47.322;18.784;2023-04-10T04:23:50;1009.93;;;5.06;71.69
48810;BME280;40070;47.322;18.784;2023-04-10T04:25:51;1009.94;;;5.30;71.57
48810;BME280;40070;47.322;18.784;2023-04-10T04:27:51;1009.92;;;5.60;70.44
48810;BME280;40070;47.322;18.784;2023-04-10T04:29:52;1009.95;;;5.59;69.87
48810;BME280;40070;47.322;18.784;2023-04-10T04:31:53;1009.94;;;5.47;70.01
48810;BME280;40070;47.322;18.784;2023-04-10T04:33:54;1009.97;;;5.34;70.48
48810;BME280;40070;47.322;18.784;2023-04-10T04:35:55;1010.00;;;5.40;70.47
48810;BME280;40070;47.322;18.784;2023-04-10T04:37:56;1010.03;;;5.26;70.84
48810;BME280;40070;47.322;18.784;2023-04-10T04:39:57;1010.01;;;5.21;70.88
48810;BME280;40070;47.322;18.784;2023-04-10T04:41:58;1010.05;;;5.19;71.00
48810;BME280;40070;47.322;18.784;2023-04-10T04:44:00;1010.03;;;5.32;70.94
48810;BME280;40070;47.322;18.784;2023-04-10T04:46:01;1010.11;;;5.44;69.99
48810;BME280;40070;47.322;18.784;2023-04-10T04:48:02;1010.13;;;5.17;71.29
48810;BME280;40070;47.322;18.784;2023-04-10T04:50:03;1010.14;;;5.42;70.62
48810;BME280;40070;47.322;18.784;2023-04-10T04:52:04;1010.16;;;5.36;70.74
48810;BME280;40070;47.322;18.784;2023-04-10T04:54:05;1010.13;;;5.29;71.06
48810;BME280;40070;47.322;18.784;2023-04-10T04:56:06;1010.16;;;5.25;71.23
48810;BME280;40070;47.322;18.784;2023-04-10T04:58:07;1010.18;;;5.13;72.12
48810;BME280;40070;47.322;18.784;2023-04-10T05:00:08;1010.16;;;5.33;72.04
48810;BME280;40070;47.322;18.784;2023-04-10T05:02:09;1010.18;;;5.67;70.68
48810;BME280;40070;47.322;18.784;2023-04-10T05:04:10;1010.17;;;5.94;69.69
48810;BME280;40070;47.322;18.784;2023-04-10T05:06:11;1010.13;;;6.17;69.17
48810;BME280;40070;47.322;18.784;2023-04-10T05:08:12;1010.20;;;6.15;68.80
48810;BME280;40070;47.322;18.784;2023-04-10T05:10:13;1010.20;;;6.02;69.31
48810;BME280;40070;47.322;18.784;2023-04-10T05:12:14;1010.20;;;5.99;69.60
48810;BME280;40070;47.322;18.784;2023-04-10T05:14:15;1010.20;;;5.90;70.07
48810;BME280;40070;47.322;18.784;2023-04-10T05:16:16;1010.22;;;6.14;69.68
48810;BME280;40070;47.322;18.784;2023-04-10T05:18:17;1010.24;;;6.13;69.56
48810;BME280;40070;47.322;18.784;2023-04-10T05:20:18;1010.26;;;6.09;69.93
48810;BME280;40070;47.322;18.784;2023-04-10T05:22:19;1010.24;;;6.21;69.94
48810;BME280;40070;47.322;18.784;2023-04-10T05:24:20;1010.29;;;6.28;69.78
48810;BME280;40070;47.322;18.784;2023-04-10T05:26:21;1010.30;;;6.52;69.23
48810;BME280;40070;47.322;18.784;2023-04-10T05:28:22;1010.29;;;6.53;68.94
48810;BME280;40070;47.322;18.784;2023-04-10T05:30:23;1010.30;;;6.73;68.69
48810;BME280;40070;47.322;18.784;2023-04-10T05:32:23;1010.37;;;6.59;68.68
48810;BME280;40070;47.322;18.784;2023-04-10T05:34:24;1010.37;;;6.55;68.96
48810;BME280;40070;47.322;18.784;2023-04-10T05:36:25;1010.35;;;6.40;69.44
48810;BME280;40070;47.322;18.784;2023-04-10T05:38:26;1010.39;;;6.51;69.44
48810;BME280;40070;47.322;18.784;2023-04-10T05:40:27;1010.38;;;6.91;68.58
48810;BME280;40070;47.322;18.784;2023-04-10T05:42:28;1010.39;;;6.97;68.50
48810;BME280;40070;47.322;18.784;2023-04-10T05:44:29;1010.38;;;7.08;67.80
48810;BME280;40070;47.322;18.784;2023-04-10T05:46:30;1010.41;;;6.96;68.59
48810;BME280;40070;47.322;18.784;2023-04-10T05:48:32;1010.35;;;7.25;67.79
48810;BME280;40070;47.322;18.784;2023-04-10T05:50:33;1010.34;;;7.37;67.99
48810;BME280;40070;47.322;18.784;2023-04-10T05:52:35;1010.32;;;7.58;66.98
48810;BME280;40070;47.322;18.784;2023-04-10T05:54:36;1010.28;;;7.48;67.23
48810;BME280;40070;47.322;18.784;2023-04-10T05:56:36;1010.32;;;7.62;66.92
48810;BME280;40070;47.322;18.784;2023-04-10T05:58:37;1010.28;;;7.94;65.98
48810;BME280;40070;47.322;18.784;2023-04-10T06:00:38;1010.31;;;8.03;65.87
48810;BME280;40070;47.322;18.784;2023-04-10T06:02:39;1010.31;;;7.94;66.17
48810;BME280;40070;47.322;18.784;2023-04-10T06:04:40;1010.33;;;7.86;66.50
48810;BME280;40070;47.322;18.784;2023-04-10T06:06:41;1010.35;;;7.82;66.74
48810;BME280;40070;47.322;18.784;2023-04-10T06:08:42;1010.37;;;7.86;67.05
48810;BME280;40070;47.322;18.784;2023-04-10T06:10:43;1010.39;;;8.10;66.41
48810;BME280;40070;47.322;18.784;2023-04-10T06:12:44;1010.40;;;8.06;66.91
48810;BME280;40070;47.322;18.784;2023-04-10T06:14:45;1010.40;;;8.41;65.88
48810;BME280;40070;47.322;18.784;2023-04-10T06:16:46;1010.44;;;8.47;65.36
48810;BME280;40070;47.322;18.784;2023-04-10T06:18:47;1010.44;;;8.39;65.73
48810;BME280;40070;47.322;18.784;2023-04-10T06:20:48;1010.46;;;8.67;65.25
48810;BME280;40070;47.322;18.784;2023-04-10T06:22:50;1010.50;;;8.92;64.76
48810;BME280;40070;47.322;18.784;2023-04-10T06:24:51;1010.52;;;8.87;65.10
48810;BME280;40070;47.322;18.784;2023-04-10T06:26:52;1010.46;;;8.63;65.48
48810;BME280;40070;47.322;18.784;2023-04-10T06:28:53;1010.38;;;8.72;65.22
48810;BME280;40070;47.322;18.784;2023-04-10T06:30:54;1010.40;;;8.91;64.94
48810;BME280;40070;47.322;18.784;2023-04-10T06:32:55;1010.40;;;9.10;64.64
48810;BME280;40070;47.322;18.784;2023-04-10T06:34:56;1010.38;;;8.88;65.16
48810;BME280;40070;47.322;18.784;2023-04-10T06:36:57;1010.39;;;9.11;64.50
48810;BME280;40070;47.322;18.784;2023-04-10T06:38:58;1010.37;;;9.09;64.60
48810;BME280;40070;47.322;18.784;2023-04-10T06:40:59;1010.33;;;9.38;64.10
48810;BME280;40070;47.322;18.784;2023-04-10T06:43:00;1010.34;;;9.59;63.64
48810;BME280;40070;47.322;18.784;2023-04-10T06:45:01;1010.38;;;9.60;63.16
48810;BME280;40070;47.322;18.784;2023-04-10T06:47:02;1010.34;;;9.67;63.01
48810;BME280;40070;47.322;18.784;2023-04-10T06:49:03;1010.28;;;9.78;62.39
48810;BME280;40070;47.322;18.784;2023-04-10T06:51:04;1010.28;;;10.03;62.10
48810;BME280;40070;47.322;18.784;2023-04-10T06:53:05;1010.27;;;10.07;62.41
48810;BME280;40070;47.322;18.784;2023-04-10T06:55:06;1010.26;;;10.19;62.77
48810;BME280;40070;47.322;18.784;2023-04-10T06:57:07;1010.25;;;10.43;62.01
48810;BME280;40070;47.322;18.784;2023-04-10T06:59:08;1010.29;;;10.56;61.13
48810;BME280;40070;47.322;18.784;2023-04-10T07:01:09;1010.26;;;10.71;60.91
48810;BME280;40070;47.322;18.784;2023-04-10T07:03:09;1010.30;;;10.82;60.16
48810;BME280;40070;47.322;18.784;2023-04-10T07:05:10;1010.28;;;10.68;60.89
48810;BME280;40070;47.322;18.784;2023-04-10T07:07:11;1010.29;;;10.76;61.01
48810;BME280;40070;47.322;18.784;2023-04-10T07:09:12;1010.30;;;10.91;60.39
48810;BME280;40070;47.322;18.784;2023-04-10T07:11:13;1010.31;;;10.95;60.17
48810;BME280;40070;47.322;18.784;2023-04-10T07:13:14;1010.30;;;10.83;60.84
48810;BME280;40070;47.322;18.784;2023-04-10T07:15:15;1010.30;;;10.93;60.60
48810;BME280;40070;47.322;18.784;2023-04-10T07:17:16;1010.27;;;11.09;60.00
48810;BME280;40070;47.322;18.784;2023-04-10T07:19:17;1010.27;;;10.98;59.70
48810;BME280;40070;47.322;18.784;2023-04-10T07:21:18;1010.19;;;11.40;59.29
48810;BME280;40070;47.322;18.784;2023-04-10T07:23:19;1010.25;;;11.26;59.78
48810;BME280;40070;47.322;18.784;2023-04-10T07:25:20;1010.21;;;11.31;59.25
48810;BME280;40070;47.322;18.784;2023-04-10T07:27:20;1010.24;;;11.26;59.90
48810;BME280;40070;47.322;18.784;2023-04-10T07:29:21;1010.23;;;11.35;58.62
48810;BME280;40070;47.322;18.784;2023-04-10T07:31:22;1010.22;;;11.57;57.66
48810;BME280;40070;47.322;18.784;2023-04-10T07:33:23;1010.20;;;11.46;57.77
48810;BME280;40070;47.322;18.784;2023-04-10T07:35:24;1010.21;;;11.55;57.60
48810;BME280;40070;47.322;18.784;2023-04-10T07:37:25;1010.15;;;11.41;58.06
48810;BME280;40070;47.322;18.784;2023-04-10T07:39:26;1010.14;;;11.41;58.20
48810;BME280;40070;47.322;18.784;2023-04-10T07:41:27;1010.20;;;11.57;57.81
48810;BME280;40070;47.322;18.784;2023-04-10T07:43:28;1010.15;;;11.50;58.16
48810;BME280;40070;47.322;18.784;2023-04-10T07:45:29;1010.16;;;11.61;57.78
48810;BME280;40070;47.322;18.784;2023-04-10T07:47:30;1010.12;;;12.14;56.67
48810;BME280;40070;47.322;18.784;2023-04-10T07:49:31;1010.06;;;12.36;55.70
48810;BME280;40070;47.322;18.784;2023-04-10T07:51:31;1010.07;;;12.34;55.79
48810;BME280;40070;47.322;18.784;2023-04-10T07:53:32;1010.04;;;12.42;55.34
48810;BME280;40070;47.322;18.784;2023-04-10T07:55:40;1010.04;;;12.21;55.93
48810;BME280;40070;47.322;18.784;2023-04-10T07:57:42;1010.02;;;12.67;55.07
48810;BME280;40070;47.322;18.784;2023-04-10T07:59:43;1010.01;;;12.98;54.06
48810;BME280;40070;47.322;18.784;2023-04-10T08:01:43;1009.95;;;13.23;54.02
48810;BME280;40070;47.322;18.784;2023-04-10T08:03:44;1009.94;;;13.41;53.12
48810;BME280;40070;47.322;18.784;2023-04-10T08:05:45;1009.97;;;13.43;53.84
48810;BME280;40070;47.322;18.784;2023-04-10T08:07:46;1009.92;;;13.81;52.60
48810;BME280;40070;47.322;18.784;2023-04-10T08:09:47;1009.98;;;14.11;51.70
48810;BME280;40070;47.322;18.784;2023-04-10T08:11:48;1009.94;;;14.26;50.56
48810;BME280;40070;47.322;18.784;2023-04-10T08:13:50;1009.92;;;13.93;52.08
48810;BME280;40070;47.322;18.784;2023-04-10T08:15:51;1009.94;;;13.93;51.64
48810;BME280;40070;47.322;18.784;2023-04-10T08:17:52;1009.89;;;13.94;50.84
48810;BME280;40070;47.322;18.784;2023-04-10T08:19:52;1009.90;;;13.93;50.50
48810;BME280;40070;47.322;18.784;2023-04-10T08:21:53;1009.89;;;14.14;50.46
48810;BME280;40070;47.322;18.784;2023-04-10T08:23:58;1009.87;;;14.29;51.62
48810;BME280;40070;47.322;18.784;2023-04-10T08:25:59;1009.90;;;14.59;50.39
48810;BME280;40070;47.322;18.784;2023-04-10T08:28:00;1009.86;;;14.85;47.15
48810;BME280;40070;47.322;18.784;2023-04-10T08:30:01;1009.81;;;14.67;48.01
48810;BME280;40070;47.322;18.784;2023-04-10T08:32:01;1009.78;;;14.78;48.33
48810;BME280;40070;47.322;18.784;2023-04-10T08:34:02;1009.72;;;14.91;47.97
48810;BME280;40070;47.322;18.784;2023-04-10T08:36:03;1009.78;;;14.84;46.95
48810;BME280;40070;47.322;18.784;2023-04-10T08:38:04;1009.72;;;14.87;45.81
48810;BME280;40070;47.322;18.784;2023-04-10T08:40:05;1009.69;;;15.16;46.57
48810;BME280;40070;47.322;18.784;2023-04-10T08:42:07;1009.68;;;14.97;46.78
48810;BME280;40070;47.322;18.784;2023-04-10T08:44:07;1009.69;;;15.39;45.90
48810;BME280;40070;47.322;18.784;2023-04-10T08:46:08;1009.62;;;15.39;45.58
48810;BME280;40070;47.322;18.784;2023-04-10T08:48:09;1009.60;;;15.74;44.86
48810;BME280;40070;47.322;18.784;2023-04-10T08:50:10;1009.66;;;15.87;43.60
48810;BME280;40070;47.322;18.784;2023-04-10T08:52:17;1009.65;;;15.91;43.40
48810;BME280;40070;47.322;18.784;2023-04-10T08:54:24;1009.63;;;15.80;42.58
48810;BME280;40070;47.322;18.784;2023-04-10T08:56:25;1009.61;;;15.66;41.13
48810;BME280;40070;47.322;18.784;2023-04-10T08:58:27;1009.55;;;15.51;42.11
48810;BME280;40070;47.322;18.784;2023-04-10T09:00:28;1009.57;;;15.97;41.42
48810;BME280;40070;47.322;18.784;2023-04-10T09:02:29;1009.52;;;15.84;41.27
48810;BME280;40070;47.322;18.784;2023-04-10T09:04:29;1009.49;;;16.21;41.25
48810;BME280;40070;47.322;18.784;2023-04-10T09:06:30;1009.49;;;16.34;39.79
48810;BME280;40070;47.322;18.784;2023-04-10T09:08:31;1009.44;;;16.59;40.72
48810;BME280;40070;47.322;18.784;2023-04-10T09:10:33;1009.42;;;16.86;39.56
48810;BME280;40070;47.322;18.784;2023-04-10T09:12:43;1009.43;;;16.73;39.46
48810;BME280;40070;47.322;18.784;2023-04-10T09:14:44;1009.41;;;16.55;40.23
48810;BME280;40070;47.322;18.784;2023-04-10T09:16:45;1009.34;;;16.75;40.88
48810;BME280;40070;47.322;18.784;2023-04-10T09:18:47;1009.36;;;16.86;40.37
48810;BME280;40070;47.322;18.784;2023-04-10T09:20:48;1009.37;;;16.65;39.59
48810;BME280;40070;47.322;18.784;2023-04-10T09:22:49;1009.35;;;16.58;39.63
48810;BME280;40070;47.322;18.784;2023-04-10T09:24:50;1009.36;;;16.36;40.19
48810;BME280;40070;47.322;18.784;2023-04-10T09:26:51;1009.36;;;16.55;37.43
48810;BME280;40070;47.322;18.784;2023-04-10T09:29:02;1009.37;;;16.34;36.86
48810;BME280;40070;47.322;18.784;2023-04-10T09:31:05;1009.28;;;16.68;36.07
48810;BME280;40070;47.322;18.784;2023-04-10T09:33:26;1009.20;;;16.99;35.00
48810;BME280;40070;47.322;18.784;2023-04-10T09:35:36;1009.20;;;17.07;36.37
48810;BME280;40070;47.322;18.784;2023-04-10T09:37:37;1009.14;;;17.18;36.01
48810;BME280;40070;47.322;18.784;2023-04-10T09:39:38;1009.15;;;16.83;35.14
48810;BME280;40070;47.322;18.784;2023-04-10T09:41:46;1009.08;;;16.90;34.45
48810;BME280;40070;47.322;18.784;2023-04-10T09:43:47;1009.12;;;17.26;35.75
48810;BME280;40070;47.322;18.784;2023-04-10T09:45:48;1009.04;;;17.41;34.08
48810;BME280;40070;47.322;18.784;2023-04-10T09:48:04;1009.08;;;17.54;35.08
48810;BME280;40070;47.322;18.784;2023-04-10T09:50:05;1009.13;;;17.12;35.47
48810;BME280;40070;47.322;18.784;2023-04-10T09:52:16;1009.06;;;17.44;33.81
48810;BME280;40070;47.322;18.784;2023-04-10T09:54:17;1009.02;;;17.41;34.40
48810;BME280;40070;47.322;18.784;2023-04-10T09:56:18;1008.97;;;17.86;34.00
48810;BME280;40070;47.322;18.784;2023-04-10T09:58:19;1008.99;;;17.14;34.11
48810;BME280;40070;47.322;18.784;2023-04-10T10:00:20;1008.99;;;17.25;34.82
48810;BME280;40070;47.322;18.784;2023-04-10T10:02:22;1008.98;;;17.28;34.14
48810;BME280;40070;47.322;18.784;2023-04-10T10:04:23;1008.96;;;17.65;34.10
48810;BME280;40070;47.322;18.784;2023-04-10T10:06:26;1008.96;;;17.89;33.66
48810;BME280;40070;47.322;18.784;2023-04-10T10:08:27;1008.96;;;17.95;34.56
48810;BME280;40070;47.322;18.784;2023-04-10T10:10:28;1009.01;;;17.47;34.32
48810;BME280;40070;47.322;18.784;2023-04-10T10:13:02;1009.01;;;17.29;35.22
48810;BME280;40070;47.322;18.784;2023-04-10T10:17:10;1008.99;;;16.54;35.21
48810;BME280;40070;47.322;18.784;2023-04-10T10:19:19;1008.96;;;16.92;35.13
48810;BME280;40070;47.322;18.784;2023-04-10T10:21:21;1008.86;;;17.10;34.47
48810;BME280;40070;47.322;18.784;2023-04-10T10:23:23;1008.84;;;17.42;34.73
48810;BME280;40070;47.322;18.784;2023-04-10T10:25:24;1008.85;;;17.73;34.22
48810;BME280;40070;47.322;18.784;2023-04-10T10:27:26;1008.84;;;17.87;34.61
48810;BME280;40070;47.322;18.784;2023-04-10T10:29:28;1008.79;;;18.00;33.15
48810;BME280;40070;47.322;18.784;2023-04-10T10:31:34;1008.77;;;17.77;32.84
48810;BME280;40070;47.322;18.784;2023-04-10T10:33:35;1008.79;;;17.52;33.40
48810;BME280;40070;47.322;18.784;2023-04-10T10:35:38;1008.78;;;17.54;32.82
48810;BME280;40070;47.322;18.784;2023-04-10T10:37:39;1008.73;;;17.61;32.18
48810;BME280;40070;47.322;18.784;2023-04-10T10:39:42;1008.76;;;17.56;32.75
48810;BME280;40070;47.322;18.784;2023-04-10T10:44:25;1008.74;;;17.19;32.08
48810;BME280;40070;47.322;18.784;2023-04-10T10:46:42;1008.68;;;16.93;33.23
48810;BME280;40070;47.322;18.784;2023-04-10T10:51:06;1008.62;;;16.99;33.14
48810;BME280;40070;47.322;18.784;2023-04-10T10:53:07;1008.64;;;17.29;33.63
48810;BME280;40070;47.322;18.784;2023-04-10T10:55:29;1008.60;;;17.70;32.55
48810;BME280;40070;47.322;18.784;2023-04-10T10:57:46;1008.62;;;17.71;33.86
48810;BME280;40070;47.322;18.784;2023-04-10T10:59:56;1008.62;;;17.77;32.85
48810;BME280;40070;47.322;18.784;2023-04-10T11:02:13;1008.56;;;17.78;32.51
48810;BME280;40070;47.322;18.784;2023-04-10T11:06:50;1008.56;;;17.19;32.36
48810;BME280;40070;47.322;18.784;2023-04-10T11:08:51;1008.52;;;17.17;32.92